createdAt,value
2018-12-25T00:00:02.425Z,0.00
2018-12-25T00:01:02.672Z,0.00
2018-12-25T00:02:02.405Z,0.00
2018-12-25T00:03:02.390Z,0.00
2018-12-25T00:04:02.379Z,0.00
2018-12-25T00:05:02.371Z,0.00
2018-12-25T00:06:02.357Z,0.00
2018-12-25T00:07:02.632Z,0.00
2018-12-25T00:08:02.336Z,0.00
2018-12-25T00:09:02.322Z,0.00
2018-12-25T00:10:02.311Z,0.00
2018-12-25T00:11:02.300Z,0.00
2018-12-25T00:12:02.290Z,0.00
2018-12-25T00:13:02.283Z,0.00
2018-12-25T00:14:02.266Z,0.00
2018-12-25T00:15:02.255Z,0.00
2018-12-25T00:16:02.243Z,0.00
2018-12-25T00:17:02.232Z,0.00
2018-12-25T00:18:02.220Z,0.00
2018-12-25T00:19:06.135Z,0.00
2018-12-25T00:20:02.200Z,0.00
2018-12-25T00:21:02.186Z,0.00
2018-12-25T00:22:02.177Z,0.00
2018-12-25T00:23:02.164Z,0.00
2018-12-25T00:24:02.151Z,0.00
2018-12-25T00:25:02.148Z,0.00
2018-12-25T00:26:02.129Z,0.00
2018-12-25T00:27:02.118Z,0.00
2018-12-25T00:28:02.106Z,0.00
2018-12-25T00:29:02.094Z,0.00
2018-12-25T00:30:02.085Z,0.00
2018-12-25T00:31:02.079Z,0.00
2018-12-25T00:32:02.067Z,0.00
2018-12-25T00:33:02.049Z,0.00
2018-12-25T00:34:02.037Z,0.00
2018-12-25T00:35:02.028Z,0.00
2018-12-25T00:36:02.016Z,0.00
2018-12-25T00:37:02.013Z,0.00
2018-12-25T00:38:01.993Z,0.00
2018-12-25T00:39:01.981Z,0.00
2018-12-25T00:40:01.975Z,0.00
2018-12-25T00:41:01.960Z,0.00
2018-12-25T00:42:01.949Z,0.00
2018-12-25T00:43:02.223Z,0.00
2018-12-25T00:44:01.925Z,0.00
2018-12-25T00:45:01.915Z,0.00
2018-12-25T00:46:01.901Z,0.00
2018-12-25T00:47:01.892Z,0.00
2018-12-25T00:48:01.879Z,0.00
2018-12-25T00:49:01.889Z,0.00
2018-12-25T00:50:01.868Z,0.00
2018-12-25T00:51:01.845Z,0.00
2018-12-25T00:52:01.836Z,0.00
2018-12-25T00:53:01.822Z,0.00
2018-12-25T00:54:01.811Z,0.00
2018-12-25T00:55:01.809Z,0.00
2018-12-25T00:56:01.789Z,0.00
2018-12-25T00:57:01.777Z,0.00
2018-12-25T00:58:01.766Z,0.00
2018-12-25T00:59:01.754Z,0.00
2018-12-25T01:00:01.743Z,0.00
2018-12-25T01:01:02.017Z,0.00
2018-12-25T01:02:02.291Z,0.00
2018-12-25T01:03:01.708Z,0.00
2018-12-25T01:04:01.697Z,0.00
2018-12-25T01:05:01.698Z,0.00
2018-12-25T01:06:01.675Z,0.00
2018-12-25T01:07:01.956Z,0.00
2018-12-25T01:08:01.656Z,0.00
2018-12-25T01:09:01.644Z,0.00
2018-12-25T01:10:01.630Z,0.00
2018-12-25T01:11:01.625Z,0.00
2018-12-25T01:12:01.607Z,0.00
2018-12-25T01:13:01.885Z,0.00
2018-12-25T01:14:01.585Z,0.00
2018-12-25T01:15:01.577Z,0.00
2018-12-25T01:16:01.562Z,0.00
2018-12-25T01:17:01.549Z,0.00
2018-12-25T01:18:01.542Z,0.00
2018-12-25T01:19:01.860Z,0.00
2018-12-25T01:20:01.518Z,0.00
2018-12-25T01:21:01.506Z,0.00
2018-12-25T01:22:01.494Z,0.00
2018-12-25T01:23:01.482Z,0.00
2018-12-25T01:24:01.473Z,0.00
2018-12-25T01:25:01.746Z,0.00
2018-12-25T01:26:01.449Z,0.00
2018-12-25T01:27:01.439Z,0.00
2018-12-25T01:28:01.427Z,0.00
2018-12-25T01:29:01.414Z,0.00
2018-12-25T01:30:01.405Z,0.00
2018-12-25T01:31:01.401Z,0.00
2018-12-25T01:32:01.382Z,0.00
2018-12-25T01:33:01.369Z,0.00
2018-12-25T01:34:01.358Z,0.00
2018-12-25T01:35:01.347Z,0.00
2018-12-25T01:36:01.335Z,0.00
2018-12-25T01:37:01.333Z,0.00
2018-12-25T01:38:01.314Z,0.00
2018-12-25T01:39:01.302Z,0.00
2018-12-25T01:40:01.291Z,0.00
2018-12-25T01:41:01.278Z,0.00
2018-12-25T01:42:01.267Z,0.00
2018-12-25T01:43:01.266Z,0.00
2018-12-25T01:44:01.243Z,0.00
2018-12-25T01:45:01.233Z,0.00
2018-12-25T01:46:01.222Z,0.00
2018-12-25T01:47:03.056Z,0.00
2018-12-25T01:48:01.199Z,0.00
2018-12-25T01:49:01.194Z,0.00
2018-12-25T01:50:01.177Z,0.00
2018-12-25T01:51:01.165Z,0.00
2018-12-25T01:52:01.154Z,0.00
2018-12-25T01:53:01.142Z,0.00
2018-12-25T01:54:01.133Z,0.00
2018-12-25T01:55:01.405Z,0.00
2018-12-25T01:56:01.109Z,0.00
2018-12-25T01:57:01.097Z,0.00
2018-12-25T01:58:01.085Z,0.00
2018-12-25T01:59:01.074Z,0.00
2018-12-25T02:00:01.062Z,0.00
2018-12-25T02:01:01.058Z,0.00
2018-12-25T02:02:01.041Z,0.00
2018-12-25T02:03:01.028Z,0.00
2018-12-25T02:04:01.017Z,0.00
2018-12-25T02:05:01.006Z,0.00
2018-12-25T02:06:00.994Z,0.00
2018-12-25T02:07:00.991Z,0.00
2018-12-25T02:08:00.972Z,0.00
2018-12-25T02:09:00.960Z,0.00
2018-12-25T02:10:00.950Z,0.00
2018-12-25T02:11:02.065Z,0.00
2018-12-25T02:12:00.926Z,0.00
2018-12-25T02:13:00.923Z,0.00
2018-12-25T02:14:00.906Z,0.00
2018-12-25T02:15:00.901Z,0.00
2018-12-25T02:16:00.881Z,0.00
2018-12-25T02:17:00.870Z,0.00
2018-12-25T02:18:00.860Z,0.00
2018-12-25T02:19:00.854Z,0.00
2018-12-25T02:20:00.836Z,0.00
2018-12-25T02:21:00.824Z,0.00
2018-12-25T02:22:00.813Z,0.00
2018-12-25T02:23:00.802Z,0.00
2018-12-25T02:24:00.790Z,0.00
2018-12-25T02:25:00.786Z,0.00
2018-12-25T02:26:00.769Z,0.00
2018-12-25T02:27:00.757Z,0.00
2018-12-25T02:28:00.745Z,0.00
2018-12-25T02:29:00.735Z,0.00
2018-12-25T02:30:00.722Z,0.00
2018-12-25T02:31:00.997Z,0.00
2018-12-25T02:32:00.700Z,0.00
2018-12-25T02:33:00.690Z,0.00
2018-12-25T02:34:00.678Z,0.00
2018-12-25T02:35:00.665Z,0.00
2018-12-25T02:36:00.654Z,0.00
2018-12-25T02:37:00.935Z,0.00
2018-12-25T02:38:00.633Z,0.00
2018-12-25T02:39:00.623Z,0.00
2018-12-25T02:40:00.608Z,0.00
2018-12-25T02:41:00.600Z,0.00
2018-12-25T02:42:00.587Z,0.00
2018-12-25T02:43:00.843Z,0.00
2018-12-25T02:44:00.565Z,0.00
2018-12-25T02:45:00.553Z,0.00
2018-12-25T02:46:00.542Z,0.00
2018-12-25T02:47:00.530Z,0.00
2018-12-25T02:48:00.518Z,0.00
2018-12-25T02:49:00.794Z,0.00
2018-12-25T02:50:00.497Z,0.00
2018-12-25T02:51:00.489Z,0.00
2018-12-25T02:52:00.477Z,0.00
2018-12-25T02:53:00.463Z,0.00
2018-12-25T02:54:00.455Z,0.00
2018-12-25T02:55:00.881Z,0.00
2018-12-25T02:56:00.428Z,0.00
2018-12-25T02:57:00.418Z,0.00
2018-12-25T02:58:00.406Z,0.00
2018-12-25T02:59:00.394Z,0.00
2018-12-25T03:00:00.385Z,0.00
2018-12-25T03:01:00.664Z,0.00
2018-12-25T03:02:00.362Z,0.00
2018-12-25T03:03:00.349Z,0.00
2018-12-25T03:04:00.337Z,0.00
2018-12-25T03:05:00.342Z,0.00
2018-12-25T03:06:00.315Z,0.00
2018-12-25T03:07:00.312Z,0.00
2018-12-25T03:08:00.292Z,0.00
2018-12-25T03:09:00.281Z,0.00
2018-12-25T03:10:00.275Z,0.00
2018-12-25T03:11:00.260Z,0.00
2018-12-25T03:12:00.247Z,0.00
2018-12-25T03:13:01.378Z,0.00
2018-12-25T03:14:00.223Z,0.00
2018-12-25T03:15:00.268Z,0.00
2018-12-25T03:16:00.203Z,0.00
2018-12-25T03:17:00.190Z,0.00
2018-12-25T03:18:00.178Z,0.00
2018-12-25T03:19:00.481Z,0.00
2018-12-25T03:20:00.377Z,0.00
2018-12-25T03:21:00.147Z,0.00
2018-12-25T03:22:00.133Z,0.00
2018-12-25T03:23:00.999Z,0.00
2018-12-25T03:24:00.109Z,0.00
2018-12-25T03:25:00.315Z,0.00
2018-12-25T03:26:00.087Z,0.00
2018-12-25T03:27:00.076Z,0.00
2018-12-25T03:28:00.066Z,0.00
2018-12-25T03:29:00.055Z,0.00
2018-12-25T03:30:00.044Z,0.00
2018-12-25T03:31:00.040Z,0.00
2018-12-25T03:32:00.020Z,0.00
2018-12-25T03:33:00.034Z,0.00
2018-12-25T03:34:00.000Z,0.00
2018-12-25T03:34:59.986Z,0.00
2018-12-25T03:35:59.976Z,0.00
2018-12-25T03:36:59.973Z,0.00
2018-12-25T03:37:59.951Z,0.00
2018-12-25T03:38:59.941Z,0.00
2018-12-25T03:39:59.929Z,0.00
2018-12-25T03:40:59.918Z,0.00
2018-12-25T03:41:59.905Z,0.00
2018-12-25T03:42:59.907Z,0.00
2018-12-25T03:43:59.884Z,0.00
2018-12-25T03:44:59.874Z,0.00
2018-12-25T03:45:59.863Z,0.00
2018-12-25T03:46:59.849Z,0.00
2018-12-25T03:47:59.838Z,0.00
2018-12-25T03:49:00.119Z,0.00
2018-12-25T03:50:10.158Z,0.00
2018-12-25T03:51:00.804Z,0.00
2018-12-25T03:51:59.793Z,0.00
2018-12-25T03:52:59.782Z,0.00
2018-12-25T03:53:59.771Z,0.00
2018-12-25T03:54:59.766Z,0.00
2018-12-25T03:55:59.749Z,0.00
2018-12-25T03:56:59.736Z,0.00
2018-12-25T03:57:59.727Z,0.00
2018-12-25T03:58:59.717Z,0.00
2018-12-25T03:59:59.703Z,0.00
2018-12-25T04:00:59.699Z,0.00
2018-12-25T04:01:59.683Z,0.00
2018-12-25T04:02:59.669Z,0.00
2018-12-25T04:03:59.657Z,0.00
2018-12-25T04:04:59.646Z,0.00
2018-12-25T04:05:59.634Z,0.00
2018-12-25T04:06:59.635Z,0.00
2018-12-25T04:07:59.613Z,0.00
2018-12-25T04:08:59.600Z,0.00
2018-12-25T04:09:59.595Z,0.00
2018-12-25T04:10:59.578Z,0.00
2018-12-25T04:11:59.565Z,0.00
2018-12-25T04:12:59.564Z,0.00
2018-12-25T04:13:59.551Z,0.00
2018-12-25T04:14:59.542Z,0.00
2018-12-25T04:15:59.520Z,0.00
2018-12-25T04:16:59.510Z,0.00
2018-12-25T04:17:59.498Z,0.00
2018-12-25T04:18:59.511Z,0.00
2018-12-25T04:19:59.476Z,0.00
2018-12-25T04:20:59.591Z,0.00
2018-12-25T04:21:59.453Z,0.00
2018-12-25T04:22:59.443Z,0.00
2018-12-25T04:23:59.509Z,0.00
2018-12-25T04:24:59.425Z,0.00
2018-12-25T04:25:59.407Z,0.00
2018-12-25T04:26:59.397Z,0.00
2018-12-25T04:27:59.390Z,0.00
2018-12-25T04:28:59.374Z,0.00
2018-12-25T04:29:59.363Z,0.00
2018-12-25T04:30:59.360Z,0.00
2018-12-25T04:31:59.343Z,0.00
2018-12-25T04:32:59.329Z,0.00
2018-12-25T04:33:59.316Z,0.00
2018-12-25T04:34:59.305Z,0.00
2018-12-25T04:35:59.295Z,0.00
2018-12-25T04:36:59.292Z,0.00
2018-12-25T04:37:59.276Z,0.00
2018-12-25T04:38:59.261Z,0.00
2018-12-25T04:39:59.249Z,0.00
2018-12-25T04:40:59.237Z,0.00
2018-12-25T04:41:59.227Z,0.00
2018-12-25T04:42:59.223Z,0.00
2018-12-25T04:43:59.203Z,0.00
2018-12-25T04:44:59.192Z,0.00
2018-12-25T04:45:59.179Z,0.00
2018-12-25T04:46:59.168Z,0.00
2018-12-25T04:47:59.157Z,0.00
2018-12-25T04:48:59.166Z,0.00
2018-12-25T04:49:59.135Z,0.00
2018-12-25T04:50:59.123Z,0.00
2018-12-25T04:51:59.114Z,0.00
2018-12-25T04:52:59.103Z,0.00
2018-12-25T04:53:59.089Z,0.00
2018-12-25T04:54:59.370Z,0.00
2018-12-25T04:55:59.067Z,0.00
2018-12-25T04:56:59.072Z,0.00
2018-12-25T04:57:59.043Z,0.00
2018-12-25T04:58:59.032Z,0.00
2018-12-25T04:59:59.022Z,0.00
2018-12-25T05:00:59.299Z,0.00
2018-12-25T05:01:59.002Z,0.00
2018-12-25T05:02:58.992Z,0.00
2018-12-25T05:03:58.985Z,0.00
2018-12-25T05:04:58.965Z,0.00
2018-12-25T05:05:58.953Z,0.00
2018-12-25T05:06:58.965Z,0.00
2018-12-25T05:07:58.931Z,0.00
2018-12-25T05:08:58.918Z,0.00
2018-12-25T05:09:58.909Z,0.00
2018-12-25T05:10:58.897Z,0.00
2018-12-25T05:11:58.885Z,0.00
2018-12-25T05:12:59.163Z,0.00
2018-12-25T05:13:58.862Z,0.00
2018-12-25T05:14:58.851Z,0.00
2018-12-25T05:15:58.840Z,0.00
2018-12-25T05:16:58.828Z,0.00
2018-12-25T05:17:58.816Z,0.00
2018-12-25T05:18:58.828Z,0.00
2018-12-25T05:19:58.794Z,0.00
2018-12-25T05:20:58.782Z,0.00
2018-12-25T05:21:58.775Z,0.00
2018-12-25T05:22:58.760Z,0.00
2018-12-25T05:23:58.748Z,0.00
2018-12-25T05:24:59.021Z,0.00
2018-12-25T05:25:58.727Z,0.00
2018-12-25T05:26:58.715Z,0.00
2018-12-25T05:27:58.705Z,0.00
2018-12-25T05:28:58.693Z,0.00
2018-12-25T05:29:58.680Z,0.00
2018-12-25T05:30:58.679Z,0.00
2018-12-25T05:31:58.658Z,0.00
2018-12-25T05:32:58.646Z,0.00
2018-12-25T05:33:58.636Z,0.00
2018-12-25T05:34:58.624Z,0.00
2018-12-25T05:35:58.613Z,0.00
2018-12-25T05:36:58.609Z,0.00
2018-12-25T05:37:58.590Z,0.00
2018-12-25T05:38:58.579Z,0.00
2018-12-25T05:39:58.571Z,0.00
2018-12-25T05:40:58.556Z,0.00
2018-12-25T05:41:58.545Z,0.00
2018-12-25T05:42:58.542Z,0.00
2018-12-25T05:43:58.522Z,0.00
2018-12-25T05:44:58.514Z,0.00
2018-12-25T05:45:58.501Z,0.00
2018-12-25T05:46:58.488Z,0.00
2018-12-25T05:47:58.479Z,0.00
2018-12-25T05:48:58.474Z,0.00
2018-12-25T05:49:58.456Z,0.00
2018-12-25T05:50:58.444Z,0.00
2018-12-25T05:51:58.431Z,0.00
2018-12-25T05:52:58.422Z,0.00
2018-12-25T05:53:58.409Z,0.00
2018-12-25T05:54:58.408Z,0.00
2018-12-25T05:55:58.386Z,0.00
2018-12-25T05:56:58.375Z,0.00
2018-12-25T05:57:58.363Z,0.00
2018-12-25T05:58:58.352Z,0.00
2018-12-25T05:59:58.343Z,0.00
2018-12-25T06:00:58.343Z,0.00
2018-12-25T06:01:58.320Z,0.00
2018-12-25T06:02:58.306Z,0.00
2018-12-25T06:03:58.296Z,0.00
2018-12-25T06:04:58.284Z,0.00
2018-12-25T06:05:58.272Z,0.00
2018-12-25T06:06:58.271Z,0.00
2018-12-25T06:07:58.251Z,0.00
2018-12-25T06:08:58.239Z,0.00
2018-12-25T06:09:58.227Z,0.00
2018-12-25T06:10:58.216Z,0.00
2018-12-25T06:11:58.204Z,0.00
2018-12-25T06:12:58.203Z,0.00
2018-12-25T06:13:58.182Z,0.00
2018-12-25T06:14:58.171Z,0.00
2018-12-25T06:15:58.160Z,0.00
2018-12-25T06:16:58.149Z,0.00
2018-12-25T06:17:58.137Z,0.00
2018-12-25T06:18:58.134Z,0.00
2018-12-25T06:19:58.114Z,0.00
2018-12-25T06:20:58.103Z,0.00
2018-12-25T06:21:58.092Z,0.00
2018-12-25T06:22:59.067Z,0.00
2018-12-25T06:23:58.068Z,0.00
2018-12-25T06:24:58.067Z,0.00
2018-12-25T06:25:58.046Z,0.00
2018-12-25T06:26:58.034Z,0.00
2018-12-25T06:27:58.025Z,0.00
2018-12-25T06:28:58.013Z,0.00
2018-12-25T06:29:57.999Z,0.00
2018-12-25T06:30:57.997Z,0.00
2018-12-25T06:31:57.983Z,0.00
2018-12-25T06:32:57.966Z,0.00
2018-12-25T06:33:57.954Z,0.00
2018-12-25T06:34:57.943Z,0.00
2018-12-25T06:35:57.932Z,0.00
2018-12-25T06:36:57.929Z,0.00
2018-12-25T06:37:57.909Z,0.00
2018-12-25T06:38:57.898Z,0.00
2018-12-25T06:39:57.890Z,0.00
2018-12-25T06:40:57.875Z,0.00
2018-12-25T06:41:57.864Z,0.00
2018-12-25T06:42:58.142Z,0.00
2018-12-25T06:43:57.842Z,0.00
2018-12-25T06:44:57.830Z,0.00
2018-12-25T06:45:57.870Z,0.00
2018-12-25T06:46:57.807Z,0.00
2018-12-25T06:47:57.797Z,0.00
2018-12-25T06:48:58.077Z,0.00
2018-12-25T06:49:57.774Z,0.00
2018-12-25T06:51:03.767Z,0.00
2018-12-25T06:51:58.758Z,0.00
2018-12-25T06:52:57.741Z,0.00
2018-12-25T06:53:57.729Z,0.00
2018-12-25T06:54:58.002Z,0.00
2018-12-25T06:55:57.781Z,0.00
2018-12-25T06:56:57.695Z,0.00
2018-12-25T06:57:57.685Z,0.00
2018-12-25T06:58:57.673Z,0.00
2018-12-25T06:59:57.659Z,0.00
2018-12-25T07:00:57.925Z,0.00
2018-12-25T07:01:57.637Z,0.00
2018-12-25T07:02:57.627Z,0.00
2018-12-25T07:03:57.613Z,0.00
2018-12-25T07:04:57.604Z,0.00
2018-12-25T07:05:57.591Z,0.00
2018-12-25T07:06:57.588Z,0.00
2018-12-25T07:07:57.573Z,0.00
2018-12-25T07:08:57.558Z,0.00
2018-12-25T07:09:57.546Z,0.00
2018-12-25T07:10:57.538Z,0.00
2018-12-25T07:11:57.524Z,0.00
2018-12-25T07:12:57.519Z,0.00
2018-12-25T07:13:57.500Z,0.00
2018-12-25T07:14:57.492Z,0.00
2018-12-25T07:15:57.478Z,0.00
2018-12-25T07:16:57.466Z,0.00
2018-12-25T07:17:57.456Z,0.00
2018-12-25T07:18:57.451Z,0.00
2018-12-25T07:19:57.431Z,0.00
2018-12-25T07:20:57.422Z,0.00
2018-12-25T07:21:57.411Z,0.00
2018-12-25T07:22:57.398Z,0.00
2018-12-25T07:23:57.388Z,0.00
2018-12-25T07:24:57.394Z,0.00
2018-12-25T07:25:57.364Z,0.00
2018-12-25T07:26:57.352Z,0.00
2018-12-25T07:27:57.343Z,0.00
2018-12-25T07:28:57.329Z,0.00
2018-12-25T07:29:57.318Z,0.00
2018-12-25T07:30:57.576Z,0.00
2018-12-25T07:31:57.297Z,4.00
2018-12-25T07:32:57.286Z,4.00
2018-12-25T07:33:57.273Z,4.00
2018-12-25T07:34:57.262Z,4.00
2018-12-25T07:35:57.251Z,4.00
2018-12-25T07:36:57.247Z,4.00
2018-12-25T07:37:57.230Z,4.00
2018-12-25T07:38:57.215Z,4.00
2018-12-25T07:39:57.205Z,4.00
2018-12-25T07:40:57.193Z,4.00
2018-12-25T07:41:57.187Z,4.00
2018-12-25T07:42:57.178Z,4.00
2018-12-25T07:43:57.162Z,4.00
2018-12-25T07:44:57.149Z,4.00
2018-12-25T07:45:57.213Z,4.00
2018-12-25T07:46:57.125Z,4.00
2018-12-25T07:47:57.133Z,0.00
2018-12-25T07:48:57.114Z,4.00
2018-12-25T07:49:57.092Z,4.00
2018-12-25T07:50:57.085Z,4.00
2018-12-25T07:51:57.069Z,4.00
2018-12-25T07:52:57.060Z,4.00
2018-12-25T07:53:57.045Z,4.00
2018-12-25T07:54:57.042Z,4.00
2018-12-25T07:55:57.024Z,4.00
2018-12-25T07:56:57.013Z,4.00
2018-12-25T07:57:57.004Z,4.00
2018-12-25T07:58:56.991Z,4.00
2018-12-25T07:59:56.978Z,8.00
2018-12-25T08:00:56.977Z,8.00
2018-12-25T08:01:56.956Z,4.00
2018-12-25T08:02:56.945Z,4.00
2018-12-25T08:03:56.933Z,4.00
2018-12-25T08:04:56.921Z,4.00
2018-12-25T08:05:56.913Z,8.00
2018-12-25T08:06:56.906Z,8.00
2018-12-25T08:07:56.888Z,8.00
2018-12-25T08:08:56.876Z,8.00
2018-12-25T08:09:56.866Z,4.00
2018-12-25T08:10:56.855Z,8.00
2018-12-25T08:11:56.843Z,8.00
2018-12-25T08:12:57.100Z,8.00
2018-12-25T08:13:56.822Z,4.00
2018-12-25T08:14:56.811Z,4.00
2018-12-25T08:15:56.797Z,4.00
2018-12-25T08:16:56.785Z,4.00
2018-12-25T08:17:56.774Z,4.00
2018-12-25T08:18:57.047Z,4.00
2018-12-25T08:19:56.751Z,4.00
2018-12-25T08:20:56.741Z,4.00
2018-12-25T08:21:56.728Z,4.00
2018-12-25T08:23:02.505Z,8.00
2018-12-25T08:23:57.991Z,8.00
2018-12-25T08:24:56.694Z,12.00
2018-12-25T08:25:56.686Z,8.00
2018-12-25T08:26:56.673Z,8.00
2018-12-25T08:27:56.660Z,8.00
2018-12-25T08:28:56.652Z,8.00
2018-12-25T08:29:56.963Z,8.00
2018-12-25T08:30:56.632Z,8.00
2018-12-25T08:31:56.617Z,12.00
2018-12-25T08:32:56.603Z,12.00
2018-12-25T08:33:56.593Z,16.00
2018-12-25T08:34:56.581Z,16.00
2018-12-25T08:35:56.863Z,12.00
2018-12-25T08:36:56.558Z,12.00
2018-12-25T08:37:56.548Z,16.00
2018-12-25T08:38:56.536Z,12.00
2018-12-25T08:39:56.529Z,16.00
2018-12-25T08:40:56.513Z,16.00
2018-12-25T08:41:56.833Z,16.00
2018-12-25T08:42:56.491Z,12.00
2018-12-25T08:43:56.480Z,12.00
2018-12-25T08:44:56.468Z,20.00
2018-12-25T08:45:56.458Z,20.00
2018-12-25T08:46:56.447Z,24.00
2018-12-25T08:47:56.442Z,20.00
2018-12-25T08:48:56.423Z,20.00
2018-12-25T08:49:56.413Z,20.00
2018-12-25T08:50:56.403Z,20.00
2018-12-25T08:51:56.388Z,20.00
2018-12-25T08:52:56.378Z,20.00
2018-12-25T08:53:56.385Z,20.00
2018-12-25T08:54:56.357Z,20.00
2018-12-25T08:55:56.343Z,20.00
2018-12-25T08:56:56.331Z,24.00
2018-12-25T08:57:56.321Z,24.00
2018-12-25T08:58:56.309Z,20.00
2018-12-25T08:59:56.304Z,16.00
2018-12-25T09:00:56.289Z,16.00
2018-12-25T09:01:56.275Z,20.00
2018-12-25T09:02:56.264Z,20.00
2018-12-25T09:03:56.253Z,20.00
2018-12-25T09:04:56.243Z,24.00
2018-12-25T09:05:56.236Z,24.00
2018-12-25T09:06:56.220Z,24.00
2018-12-25T09:07:56.206Z,24.00
2018-12-25T09:08:56.196Z,20.00
2018-12-25T09:09:56.188Z,20.00
2018-12-25T09:10:56.173Z,16.00
2018-12-25T09:11:56.491Z,20.00
2018-12-25T09:12:56.151Z,20.00
2018-12-25T09:13:56.141Z,20.00
2018-12-25T09:14:56.128Z,16.00
2018-12-25T09:15:56.116Z,16.00
2018-12-25T09:16:56.109Z,20.00
2018-12-25T09:17:56.099Z,16.00
2018-12-25T09:18:56.082Z,16.00
2018-12-25T09:19:56.070Z,16.00
2018-12-25T09:20:56.059Z,16.00
2018-12-25T09:21:56.048Z,20.00
2018-12-25T09:22:56.037Z,28.00
2018-12-25T09:23:56.033Z,32.00
2018-12-25T09:24:56.015Z,36.00
2018-12-25T09:25:56.002Z,32.00
2018-12-25T09:26:55.991Z,36.00
2018-12-25T09:27:55.981Z,36.00
2018-12-25T09:28:55.969Z,28.00
2018-12-25T09:29:55.966Z,28.00
2018-12-25T09:30:55.947Z,28.00
2018-12-25T09:31:55.935Z,32.00
2018-12-25T09:32:55.924Z,32.00
2018-12-25T09:33:55.913Z,28.00
2018-12-25T09:34:55.909Z,28.00
2018-12-25T09:35:55.896Z,32.00
2018-12-25T09:36:55.880Z,40.00
2018-12-25T09:37:55.868Z,36.00
2018-12-25T09:38:55.855Z,32.00
2018-12-25T09:39:55.845Z,28.00
2018-12-25T09:40:56.354Z,28.00
2018-12-25T09:41:56.138Z,36.00
2018-12-25T09:42:55.810Z,40.00
2018-12-25T09:43:55.799Z,48.00
2018-12-25T09:44:55.787Z,48.00
2018-12-25T09:45:55.776Z,40.00
2018-12-25T09:46:55.765Z,36.00
2018-12-25T09:47:55.761Z,36.00
2018-12-25T09:48:55.744Z,40.00
2018-12-25T09:49:55.730Z,44.00
2018-12-25T09:50:55.718Z,44.00
2018-12-25T09:51:55.710Z,52.00
2018-12-25T09:52:55.699Z,52.00
2018-12-25T09:53:55.692Z,52.00
2018-12-25T09:54:55.674Z,52.00
2018-12-25T09:55:55.662Z,56.00
2018-12-25T09:56:55.653Z,64.00
2018-12-25T09:57:55.640Z,64.00
2018-12-25T09:58:55.631Z,60.00
2018-12-25T09:59:55.627Z,52.00
2018-12-25T10:00:55.606Z,44.00
2018-12-25T10:01:55.601Z,40.00
2018-12-25T10:02:55.583Z,44.00
2018-12-25T10:03:55.572Z,44.00
2018-12-25T10:04:56.690Z,52.00
2018-12-25T10:05:55.835Z,56.00
2018-12-25T10:06:55.537Z,56.00
2018-12-25T10:07:55.527Z,52.00
2018-12-25T10:08:55.515Z,44.00
2018-12-25T10:09:55.573Z,36.00
2018-12-25T10:10:55.492Z,44.00
2018-12-25T10:11:55.781Z,44.00
2018-12-25T10:12:55.471Z,40.00
2018-12-25T10:13:55.468Z,40.00
2018-12-25T10:14:55.447Z,32.00
2018-12-25T10:15:55.437Z,32.00
2018-12-25T10:16:55.425Z,40.00
2018-12-25T10:17:55.745Z,40.00
2018-12-25T10:18:55.402Z,44.00
2018-12-25T10:19:55.390Z,40.00
2018-12-25T10:20:55.379Z,36.00
2018-12-25T10:22:02.783Z,48.00
2018-12-25T10:22:56.378Z,52.00
2018-12-25T10:23:55.346Z,52.00
2018-12-25T10:24:55.336Z,48.00
2018-12-25T10:25:56.131Z,52.00
2018-12-25T10:26:55.311Z,48.00
2018-12-25T10:27:55.299Z,48.00
2018-12-25T10:28:55.567Z,56.00
2018-12-25T10:29:55.279Z,56.00
2018-12-25T10:30:55.264Z,60.00
2018-12-25T10:31:55.257Z,52.00
2018-12-25T10:32:55.243Z,56.00
2018-12-25T10:33:55.231Z,56.00
2018-12-25T10:34:55.228Z,56.00
2018-12-25T10:35:55.210Z,64.00
2018-12-25T10:36:55.198Z,64.00
2018-12-25T10:37:55.233Z,72.00
2018-12-25T10:38:55.175Z,68.00
2018-12-25T10:39:55.163Z,60.00
2018-12-25T10:40:55.162Z,48.00
2018-12-25T10:41:55.141Z,48.00
2018-12-25T10:42:55.130Z,48.00
2018-12-25T10:43:55.119Z,48.00
2018-12-25T10:44:55.107Z,48.00
2018-12-25T10:45:55.096Z,52.00
2018-12-25T10:46:55.093Z,48.00
2018-12-25T10:47:55.073Z,52.00
2018-12-25T10:48:55.061Z,52.00
2018-12-25T10:49:55.050Z,68.00
2018-12-25T10:50:55.040Z,80.00
2018-12-25T10:51:55.027Z,92.00
2018-12-25T10:52:55.025Z,104.00
2018-12-25T10:53:55.005Z,96.00
2018-12-25T10:54:54.994Z,104.00
2018-12-25T10:55:54.981Z,80.00
2018-12-25T10:56:54.971Z,68.00
2018-12-25T10:57:54.958Z,64.00
2018-12-25T10:58:54.956Z,60.00
2018-12-25T10:59:54.937Z,56.00
2018-12-25T11:00:54.925Z,60.00
2018-12-25T11:01:54.915Z,76.00
2018-12-25T11:02:54.903Z,76.00
2018-12-25T11:03:54.894Z,92.00
2018-12-25T11:04:54.888Z,84.00
2018-12-25T11:05:54.870Z,64.00
2018-12-25T11:06:54.856Z,56.00
2018-12-25T11:07:54.847Z,72.00
2018-12-25T11:08:54.835Z,76.00
2018-12-25T11:09:54.824Z,88.00
2018-12-25T11:10:54.821Z,68.00
2018-12-25T11:11:54.800Z,48.00
2018-12-25T11:12:54.788Z,60.00
2018-12-25T11:13:54.779Z,68.00
2018-12-25T11:14:56.183Z,72.00
2018-12-25T11:15:54.755Z,64.00
2018-12-25T11:16:54.855Z,52.00
2018-12-25T11:17:54.732Z,52.00
2018-12-25T11:18:54.722Z,60.00
2018-12-25T11:19:54.708Z,56.00
2018-12-25T11:20:54.699Z,44.00
2018-12-25T11:21:54.686Z,36.00
2018-12-25T11:22:57.510Z,40.00
2018-12-25T11:23:54.666Z,44.00
2018-12-25T11:24:54.662Z,56.00
2018-12-25T11:25:54.642Z,76.00
2018-12-25T11:26:54.631Z,92.00
2018-12-25T11:27:54.619Z,84.00
2018-12-25T11:28:54.898Z,104.00
2018-12-25T11:29:54.597Z,104.00
2018-12-25T11:30:54.587Z,100.00
2018-12-25T11:31:54.573Z,112.00
2018-12-25T11:32:54.565Z,136.00
2018-12-25T11:33:54.552Z,140.00
2018-12-25T11:34:54.815Z,104.00
2018-12-25T11:35:54.529Z,100.00
2018-12-25T11:36:54.519Z,128.00
2018-12-25T11:37:54.507Z,156.00
2018-12-25T11:38:54.495Z,320.00
2018-12-25T11:39:54.483Z,176.00
2018-12-25T11:40:54.766Z,92.00
2018-12-25T11:41:54.460Z,60.00
2018-12-25T11:42:54.449Z,44.00
2018-12-25T11:43:54.437Z,44.00
2018-12-25T11:44:54.426Z,44.00
2018-12-25T11:45:54.415Z,48.00
2018-12-25T11:46:54.694Z,44.00
2018-12-25T11:47:54.393Z,48.00
2018-12-25T11:48:54.382Z,40.00
2018-12-25T11:49:54.369Z,44.00
2018-12-25T11:50:54.358Z,44.00
2018-12-25T11:51:54.347Z,44.00
2018-12-25T11:52:54.356Z,48.00
2018-12-25T11:53:54.325Z,44.00
2018-12-25T11:54:54.314Z,48.00
2018-12-25T11:55:54.301Z,44.00
2018-12-25T11:56:54.290Z,44.00
2018-12-25T11:57:54.280Z,48.00
2018-12-25T11:58:54.275Z,56.00
2018-12-25T11:59:54.259Z,56.00
2018-12-25T12:00:54.244Z,52.00
2018-12-25T12:01:54.233Z,60.00
2018-12-25T12:02:54.221Z,68.00
2018-12-25T12:03:54.210Z,72.00
2018-12-25T12:04:54.209Z,72.00
2018-12-25T12:05:54.188Z,68.00
2018-12-25T12:06:54.176Z,64.00
2018-12-25T12:07:54.166Z,60.00
2018-12-25T12:08:54.152Z,56.00
2018-12-25T12:09:54.144Z,56.00
2018-12-25T12:10:54.159Z,56.00
2018-12-25T12:11:54.119Z,56.00
2018-12-25T12:12:54.111Z,60.00
2018-12-25T12:13:54.096Z,68.00
2018-12-25T12:14:54.087Z,76.00
2018-12-25T12:15:54.075Z,76.00
2018-12-25T12:16:54.344Z,80.00
2018-12-25T12:17:54.052Z,80.00
2018-12-25T12:18:54.040Z,80.00
2018-12-25T12:19:54.031Z,72.00
2018-12-25T12:20:54.090Z,72.00
2018-12-25T12:21:54.006Z,76.00
2018-12-25T12:22:54.015Z,72.00
2018-12-25T12:23:53.984Z,68.00
2018-12-25T12:24:53.975Z,76.00
2018-12-25T12:25:53.960Z,80.00
2018-12-25T12:26:53.949Z,72.00
2018-12-25T12:27:53.940Z,76.00
2018-12-25T12:28:54.224Z,68.00
2018-12-25T12:29:53.916Z,68.00
2018-12-25T12:30:53.903Z,64.00
2018-12-25T12:31:53.899Z,64.00
2018-12-25T12:32:53.882Z,64.00
2018-12-25T12:33:53.871Z,60.00
2018-12-25T12:34:54.171Z,56.00
2018-12-25T12:35:53.849Z,56.00
2018-12-25T12:36:53.835Z,52.00
2018-12-25T12:37:53.826Z,48.00
2018-12-25T12:38:53.813Z,48.00
2018-12-25T12:39:53.803Z,48.00
2018-12-25T12:40:54.128Z,44.00
2018-12-25T12:41:53.782Z,40.00
2018-12-25T12:42:53.768Z,36.00
2018-12-25T12:43:53.758Z,36.00
2018-12-25T12:44:53.745Z,36.00
2018-12-25T12:45:53.733Z,40.00
2018-12-25T12:46:54.013Z,52.00
2018-12-25T12:47:53.711Z,56.00
2018-12-25T12:48:53.700Z,52.00
2018-12-25T12:49:53.688Z,48.00
2018-12-25T12:50:53.677Z,48.00
2018-12-25T12:51:53.666Z,52.00
2018-12-25T12:52:53.676Z,48.00
2018-12-25T12:53:53.644Z,48.00
2018-12-25T12:54:53.633Z,48.00
2018-12-25T12:55:53.620Z,48.00
2018-12-25T12:56:53.609Z,52.00
2018-12-25T12:57:53.603Z,44.00
2018-12-25T12:58:53.595Z,40.00
2018-12-25T12:59:53.576Z,40.00
2018-12-25T13:00:53.564Z,36.00
2018-12-25T13:01:53.553Z,36.00
2018-12-25T13:02:53.540Z,28.00
2018-12-25T13:03:53.529Z,24.00
2018-12-25T13:04:53.524Z,24.00
2018-12-25T13:05:53.507Z,24.00
2018-12-25T13:06:53.498Z,28.00
2018-12-25T13:07:53.486Z,28.00